sensor_id;sensor_type;location;lat;lon;timestamp;P1;durP1;ratioP1;P2;durP2;ratioP2
67776;SDS011;54576;52.020;5.536;2022-08-05T00:00:20;13.10;;;3.08;;
67776;SDS011;54576;52.020;5.536;2022-08-05T00:02:46;9.60;;;2.50;;
67776;SDS011;54576;52.020;5.536;2022-08-05T00:05:12;12.50;;;2.97;;
67776;SDS011;54576;52.020;5.536;2022-08-05T00:07:39;13.30;;;2.47;;
67776;SDS011;54576;52.020;5.536;2022-08-05T00:10:04;9.90;;;2.40;;
67776;SDS011;54576;52.020;5.536;2022-08-05T00:12:30;7.88;;;2.13;;
67776;SDS011;54576;52.020;5.536;2022-08-05T00:14:56;7.28;;;2.15;;
67776;SDS011;54576;52.020;5.536;2022-08-05T00:17:21;8.93;;;2.20;;
67776;SDS011;54576;52.020;5.536;2022-08-05T00:19:47;11.27;;;2.53;;
67776;SDS011;54576;52.020;5.536;2022-08-05T00:22:12;12.10;;;2.85;;
67776;SDS011;54576;52.020;5.536;2022-08-05T00:24:38;12.00;;;3.10;;
67776;SDS011;54576;52.020;5.536;2022-08-05T00:27:04;8.13;;;2.50;;
67776;SDS011;54576;52.020;5.536;2022-08-05T00:29:30;8.77;;;2.10;;
67776;SDS011;54576;52.020;5.536;2022-08-05T00:31:56;4.93;;;1.92;;
67776;SDS011;54576;52.020;5.536;2022-08-05T00:34:21;14.82;;;2.45;;
67776;SDS011;54576;52.020;5.536;2022-08-05T00:36:47;7.20;;;2.55;;
67776;SDS011;54576;52.020;5.536;2022-08-05T00:39:12;10.32;;;2.65;;
67776;SDS011;54576;52.020;5.536;2022-08-05T00:41:38;10.88;;;2.70;;
67776;SDS011;54576;52.020;5.536;2022-08-05T00:44:04;8.57;;;2.38;;
67776;SDS011;54576;52.020;5.536;2022-08-05T00:46:29;16.83;;;3.20;;
67776;SDS011;54576;52.020;5.536;2022-08-05T00:48:55;10.52;;;2.53;;
67776;SDS011;54576;52.020;5.536;2022-08-05T00:51:21;9.50;;;2.80;;
67776;SDS011;54576;52.020;5.536;2022-08-05T00:53:47;15.90;;;2.85;;
67776;SDS011;54576;52.020;5.536;2022-08-05T00:56:14;13.75;;;2.78;;
67776;SDS011;54576;52.020;5.536;2022-08-05T00:58:40;7.70;;;2.50;;
67776;SDS011;54576;52.020;5.536;2022-08-05T01:01:06;15.40;;;3.42;;
67776;SDS011;54576;52.020;5.536;2022-08-05T01:03:31;15.27;;;2.85;;
67776;SDS011;54576;52.020;5.536;2022-08-05T01:05:57;12.35;;;3.00;;
67776;SDS011;54576;52.020;5.536;2022-08-05T01:08:23;10.00;;;2.50;;
67776;SDS011;54576;52.020;5.536;2022-08-05T01:10:53;10.80;;;2.63;;
67776;SDS011;54576;52.020;5.536;2022-08-05T01:13:32;10.63;;;3.30;;
67776;SDS011;54576;52.020;5.536;2022-08-05T01:16:03;11.75;;;2.40;;
67776;SDS011;54576;52.020;5.536;2022-08-05T01:18:33;9.38;;;2.42;;
67776;SDS011;54576;52.020;5.536;2022-08-05T01:21:33;10.20;;;2.15;;
67776;SDS011;54576;52.020;5.536;2022-08-05T01:27:18;7.35;;;2.22;;
67776;SDS011;54576;52.020;5.536;2022-08-05T01:29:49;17.30;;;2.70;;
67776;SDS011;54576;52.020;5.536;2022-08-05T01:32:20;10.60;;;2.72;;
67776;SDS011;54576;52.020;5.536;2022-08-05T01:35:31;12.20;;;2.85;;
67776;SDS011;54576;52.020;5.536;2022-08-05T01:37:43;11.65;;;2.58;;
67776;SDS011;54576;52.020;5.536;2022-08-05T01:40:17;12.57;;;2.97;;
67776;SDS011;54576;52.020;5.536;2022-08-05T01:42:50;14.63;;;2.83;;
67776;SDS011;54576;52.020;5.536;2022-08-05T01:45:16;11.90;;;2.72;;
67776;SDS011;54576;52.020;5.536;2022-08-05T01:47:44;9.30;;;2.90;;
67776;SDS011;54576;52.020;5.536;2022-08-05T01:50:17;11.38;;;2.80;;
67776;SDS011;54576;52.020;5.536;2022-08-05T01:52:50;11.20;;;2.72;;
67776;SDS011;54576;52.020;5.536;2022-08-05T01:55:19;6.53;;;2.25;;
67776;SDS011;54576;52.020;5.536;2022-08-05T01:57:47;14.23;;;2.90;;
67776;SDS011;54576;52.020;5.536;2022-08-05T02:00:14;10.95;;;2.90;;
67776;SDS011;54576;52.020;5.536;2022-08-05T02:02:42;8.80;;;2.45;;
67776;SDS011;54576;52.020;5.536;2022-08-05T02:05:14;13.88;;;2.72;;
67776;SDS011;54576;52.020;5.536;2022-08-05T02:07:40;11.70;;;2.35;;
67776;SDS011;54576;52.020;5.536;2022-08-05T02:10:09;8.52;;;2.20;;
67776;SDS011;54576;52.020;5.536;2022-08-05T02:12:54;10.60;;;2.80;;
67776;SDS011;54576;52.020;5.536;2022-08-05T02:15:26;17.77;;;2.70;;
67776;SDS011;54576;52.020;5.536;2022-08-05T02:18:01;9.57;;;2.40;;
67776;SDS011;54576;52.020;5.536;2022-08-05T02:20:31;11.90;;;2.47;;
67776;SDS011;54576;52.020;5.536;2022-08-05T02:23:04;13.75;;;2.58;;
67776;SDS011;54576;52.020;5.536;2022-08-05T02:25:34;13.75;;;3.28;;
67776;SDS011;54576;52.020;5.536;2022-08-05T02:28:04;10.75;;;2.28;;
67776;SDS011;54576;52.020;5.536;2022-08-05T02:30:37;15.43;;;2.92;;
67776;SDS011;54576;52.020;5.536;2022-08-05T02:33:07;9.55;;;2.53;;
67776;SDS011;54576;52.020;5.536;2022-08-05T02:35:35;8.32;;;2.15;;
67776;SDS011;54576;52.020;5.536;2022-08-05T02:38:03;13.13;;;2.38;;
67776;SDS011;54576;52.020;5.536;2022-08-05T02:40:31;13.82;;;2.50;;
67776;SDS011;54576;52.020;5.536;2022-08-05T02:42:57;9.52;;;2.10;;
67776;SDS011;54576;52.020;5.536;2022-08-05T02:45:25;5.75;;;1.98;;
67776;SDS011;54576;52.020;5.536;2022-08-05T02:47:52;9.32;;;2.50;;
67776;SDS011;54576;52.020;5.536;2022-08-05T02:50:20;5.20;;;1.83;;
67776;SDS011;54576;52.020;5.536;2022-08-05T02:52:48;10.85;;;2.30;;
67776;SDS011;54576;52.020;5.536;2022-08-05T02:55:14;10.60;;;2.60;;
67776;SDS011;54576;52.020;5.536;2022-08-05T02:57:41;11.52;;;2.10;;
67776;SDS011;54576;52.020;5.536;2022-08-05T03:00:08;9.75;;;2.47;;
67776;SDS011;54576;52.020;5.536;2022-08-05T03:02:36;11.82;;;2.20;;
67776;SDS011;54576;52.020;5.536;2022-08-05T03:05:04;7.68;;;2.33;;
67776;SDS011;54576;52.020;5.536;2022-08-05T03:09:58;6.55;;;2.08;;
67776;SDS011;54576;52.020;5.536;2022-08-05T03:12:31;10.07;;;2.40;;
67776;SDS011;54576;52.020;5.536;2022-08-05T03:14:58;6.38;;;1.92;;
67776;SDS011;54576;52.020;5.536;2022-08-05T03:17:23;8.43;;;2.78;;
67776;SDS011;54576;52.020;5.536;2022-08-05T03:19:49;5.82;;;2.30;;
67776;SDS011;54576;52.020;5.536;2022-08-05T03:22:15;11.48;;;2.35;;
67776;SDS011;54576;52.020;5.536;2022-08-05T03:24:41;6.00;;;2.22;;
67776;SDS011;54576;52.020;5.536;2022-08-05T03:27:11;15.30;;;3.40;;
67776;SDS011;54576;52.020;5.536;2022-08-05T03:29:37;10.98;;;2.08;;
67776;SDS011;54576;52.020;5.536;2022-08-05T03:32:05;13.00;;;2.25;;
67776;SDS011;54576;52.020;5.536;2022-08-05T03:34:31;5.97;;;2.30;;
67776;SDS011;54576;52.020;5.536;2022-08-05T03:36:58;10.63;;;2.63;;
67776;SDS011;54576;52.020;5.536;2022-08-05T03:39:24;14.23;;;2.97;;
67776;SDS011;54576;52.020;5.536;2022-08-05T03:41:49;11.15;;;2.38;;
67776;SDS011;54576;52.020;5.536;2022-08-05T03:44:15;7.10;;;2.40;;
67776;SDS011;54576;52.020;5.536;2022-08-05T03:46:40;11.77;;;2.53;;
67776;SDS011;54576;52.020;5.536;2022-08-05T03:49:06;9.52;;;2.40;;
67776;SDS011;54576;52.020;5.536;2022-08-05T03:51:34;9.32;;;2.55;;
67776;SDS011;54576;52.020;5.536;2022-08-05T03:54:09;11.38;;;2.45;;
67776;SDS011;54576;52.020;5.536;2022-08-05T03:56:46;9.55;;;2.22;;
67776;SDS011;54576;52.020;5.536;2022-08-05T03:59:15;9.93;;;2.58;;
67776;SDS011;54576;52.020;5.536;2022-08-05T04:01:45;8.38;;;2.08;;
67776;SDS011;54576;52.020;5.536;2022-08-05T04:04:13;13.80;;;2.72;;
67776;SDS011;54576;52.020;5.536;2022-08-05T04:06:39;9.77;;;2.30;;
67776;SDS011;54576;52.020;5.536;2022-08-05T04:09:06;11.55;;;2.85;;
67776;SDS011;54576;52.020;5.536;2022-08-05T04:11:33;14.68;;;2.50;;
67776;SDS011;54576;52.020;5.536;2022-08-05T04:14:00;13.30;;;2.60;;
67776;SDS011;54576;52.020;5.536;2022-08-05T04:16:26;12.15;;;3.00;;
67776;SDS011;54576;52.020;5.536;2022-08-05T04:18:52;7.97;;;2.60;;
67776;SDS011;54576;52.020;5.536;2022-08-05T04:21:18;9.32;;;2.40;;
67776;SDS011;54576;52.020;5.536;2022-08-05T04:23:43;12.75;;;3.13;;
67776;SDS011;54576;52.020;5.536;2022-08-05T04:26:09;7.32;;;2.92;;
67776;SDS011;54576;52.020;5.536;2022-08-05T04:28:35;10.38;;;2.92;;
67776;SDS011;54576;52.020;5.536;2022-08-05T04:31:01;9.02;;;2.83;;
67776;SDS011;54576;52.020;5.536;2022-08-05T04:33:27;14.68;;;2.60;;
67776;SDS011;54576;52.020;5.536;2022-08-05T04:35:53;4.60;;;2.53;;
67776;SDS011;54576;52.020;5.536;2022-08-05T04:38:18;9.52;;;2.63;;
67776;SDS011;54576;52.020;5.536;2022-08-05T04:40:44;11.23;;;2.78;;
67776;SDS011;54576;52.020;5.536;2022-08-05T04:43:10;9.73;;;2.33;;
67776;SDS011;54576;52.020;5.536;2022-08-05T04:45:35;17.88;;;3.15;;
67776;SDS011;54576;52.020;5.536;2022-08-05T04:48:02;9.95;;;2.85;;
67776;SDS011;54576;52.020;5.536;2022-08-05T04:50:36;12.45;;;2.78;;
67776;SDS011;54576;52.020;5.536;2022-08-05T04:53:03;9.15;;;2.53;;
67776;SDS011;54576;52.020;5.536;2022-08-05T04:55:29;10.93;;;2.88;;
67776;SDS011;54576;52.020;5.536;2022-08-05T04:57:54;9.63;;;2.80;;
67776;SDS011;54576;52.020;5.536;2022-08-05T05:00:20;12.70;;;2.65;;
67776;SDS011;54576;52.020;5.536;2022-08-05T05:02:46;13.85;;;3.05;;
67776;SDS011;54576;52.020;5.536;2022-08-05T05:05:11;11.48;;;3.00;;
67776;SDS011;54576;52.020;5.536;2022-08-05T05:07:37;7.80;;;2.80;;
67776;SDS011;54576;52.020;5.536;2022-08-05T05:10:02;16.30;;;3.05;;
67776;SDS011;54576;52.020;5.536;2022-08-05T05:12:30;13.02;;;3.38;;
67776;SDS011;54576;52.020;5.536;2022-08-05T05:14:56;13.25;;;2.90;;
67776;SDS011;54576;52.020;5.536;2022-08-05T05:17:22;13.88;;;2.88;;
67776;SDS011;54576;52.020;5.536;2022-08-05T05:19:47;12.10;;;2.90;;
67776;SDS011;54576;52.020;5.536;2022-08-05T05:22:13;18.02;;;3.30;;
67776;SDS011;54576;52.020;5.536;2022-08-05T05:24:39;11.13;;;3.05;;
67776;SDS011;54576;52.020;5.536;2022-08-05T05:27:04;7.68;;;2.70;;
67776;SDS011;54576;52.020;5.536;2022-08-05T05:29:30;7.85;;;2.45;;
67776;SDS011;54576;52.020;5.536;2022-08-05T05:31:56;10.05;;;2.70;;
67776;SDS011;54576;52.020;5.536;2022-08-05T05:34:21;7.35;;;2.40;;
67776;SDS011;54576;52.020;5.536;2022-08-05T05:36:47;16.45;;;3.05;;
67776;SDS011;54576;52.020;5.536;2022-08-05T05:39:13;9.90;;;3.35;;
67776;SDS011;54576;52.020;5.536;2022-08-05T05:41:38;16.00;;;3.08;;
67776;SDS011;54576;52.020;5.536;2022-08-05T05:44:04;10.60;;;2.58;;
67776;SDS011;54576;52.020;5.536;2022-08-05T05:46:30;9.10;;;2.92;;
67776;SDS011;54576;52.020;5.536;2022-08-05T05:48:55;10.80;;;2.60;;
67776;SDS011;54576;52.020;5.536;2022-08-05T05:51:22;8.85;;;2.80;;
67776;SDS011;54576;52.020;5.536;2022-08-05T05:53:49;12.52;;;2.65;;
67776;SDS011;54576;52.020;5.536;2022-08-05T05:56:16;14.55;;;2.83;;
67776;SDS011;54576;52.020;5.536;2022-08-05T05:58:44;12.40;;;2.80;;
67776;SDS011;54576;52.020;5.536;2022-08-05T06:01:12;9.82;;;2.40;;
67776;SDS011;54576;52.020;5.536;2022-08-05T06:03:38;11.02;;;2.35;;
67776;SDS011;54576;52.020;5.536;2022-08-05T06:06:04;6.57;;;2.42;;
67776;SDS011;54576;52.020;5.536;2022-08-05T06:08:30;13.48;;;2.42;;
67776;SDS011;54576;52.020;5.536;2022-08-05T06:10:56;9.02;;;2.40;;
67776;SDS011;54576;52.020;5.536;2022-08-05T06:13:22;7.47;;;2.30;;
67776;SDS011;54576;52.020;5.536;2022-08-05T06:15:48;8.30;;;2.35;;
67776;SDS011;54576;52.020;5.536;2022-08-05T06:18:13;8.55;;;2.10;;
67776;SDS011;54576;52.020;5.536;2022-08-05T06:20:39;10.90;;;2.30;;
67776;SDS011;54576;52.020;5.536;2022-08-05T06:23:04;4.95;;;2.33;;
67776;SDS011;54576;52.020;5.536;2022-08-05T06:25:30;7.97;;;2.53;;
67776;SDS011;54576;52.020;5.536;2022-08-05T06:27:55;5.07;;;1.60;;
67776;SDS011;54576;52.020;5.536;2022-08-05T06:30:21;6.88;;;1.98;;
67776;SDS011;54576;52.020;5.536;2022-08-05T06:32:46;10.00;;;1.80;;
67776;SDS011;54576;52.020;5.536;2022-08-05T06:35:12;5.15;;;1.83;;
67776;SDS011;54576;52.020;5.536;2022-08-05T06:37:38;5.05;;;1.60;;
67776;SDS011;54576;52.020;5.536;2022-08-05T06:40:04;10.27;;;1.63;;
67776;SDS011;54576;52.020;5.536;2022-08-05T06:42:30;12.43;;;2.47;;
67776;SDS011;54576;52.020;5.536;2022-08-05T06:44:55;9.40;;;2.15;;
67776;SDS011;54576;52.020;5.536;2022-08-05T06:47:21;6.68;;;1.65;;
67776;SDS011;54576;52.020;5.536;2022-08-05T06:49:46;7.57;;;1.58;;
67776;SDS011;54576;52.020;5.536;2022-08-05T06:52:12;5.70;;;1.65;;
67776;SDS011;54576;52.020;5.536;2022-08-05T06:54:37;7.00;;;1.90;;
67776;SDS011;54576;52.020;5.536;2022-08-05T06:57:03;6.22;;;1.58;;
67776;SDS011;54576;52.020;5.536;2022-08-05T06:59:29;5.13;;;1.45;;
67776;SDS011;54576;52.020;5.536;2022-08-05T07:01:54;6.47;;;1.60;;
67776;SDS011;54576;52.020;5.536;2022-08-05T07:04:20;7.45;;;1.27;;
67776;SDS011;54576;52.020;5.536;2022-08-05T07:06:46;4.20;;;1.30;;
67776;SDS011;54576;52.020;5.536;2022-08-05T07:09:11;4.47;;;1.25;;
67776;SDS011;54576;52.020;5.536;2022-08-05T07:11:37;3.50;;;1.30;;
67776;SDS011;54576;52.020;5.536;2022-08-05T07:14:02;2.70;;;1.20;;
67776;SDS011;54576;52.020;5.536;2022-08-05T07:16:47;5.38;;;1.50;;
67776;SDS011;54576;52.020;5.536;2022-08-05T07:19:13;4.75;;;1.33;;
67776;SDS011;54576;52.020;5.536;2022-08-05T07:21:39;10.10;;;1.83;;
67776;SDS011;54576;52.020;5.536;2022-08-05T07:24:05;5.50;;;1.67;;
67776;SDS011;54576;52.020;5.536;2022-08-05T07:26:31;8.13;;;1.35;;
67776;SDS011;54576;52.020;5.536;2022-08-05T07:28:57;6.32;;;1.77;;
67776;SDS011;54576;52.020;5.536;2022-08-05T07:31:22;5.07;;;1.55;;
67776;SDS011;54576;52.020;5.536;2022-08-05T07:33:48;3.25;;;1.13;;
67776;SDS011;54576;52.020;5.536;2022-08-05T07:36:14;2.95;;;1.10;;
67776;SDS011;54576;52.020;5.536;2022-08-05T07:38:39;3.25;;;1.52;;
67776;SDS011;54576;52.020;5.536;2022-08-05T07:41:07;3.42;;;1.27;;
67776;SDS011;54576;52.020;5.536;2022-08-05T07:43:33;4.10;;;1.42;;
67776;SDS011;54576;52.020;5.536;2022-08-05T07:45:59;5.80;;;1.42;;
67776;SDS011;54576;52.020;5.536;2022-08-05T07:48:25;7.95;;;1.92;;
67776;SDS011;54576;52.020;5.536;2022-08-05T07:50:50;3.70;;;1.30;;
67776;SDS011;54576;52.020;5.536;2022-08-05T07:53:16;2.33;;;0.90;;
67776;SDS011;54576;52.020;5.536;2022-08-05T07:55:41;5.70;;;1.30;;
67776;SDS011;54576;52.020;5.536;2022-08-05T07:58:07;1.98;;;0.88;;
67776;SDS011;54576;52.020;5.536;2022-08-05T08:00:33;9.50;;;1.20;;
67776;SDS011;54576;52.020;5.536;2022-08-05T08:02:58;5.25;;;0.98;;
67776;SDS011;54576;52.020;5.536;2022-08-05T08:05:24;3.92;;;0.80;;
67776;SDS011;54576;52.020;5.536;2022-08-05T08:07:51;2.00;;;0.60;;
67776;SDS011;54576;52.020;5.536;2022-08-05T08:10:19;2.17;;;0.77;;
67776;SDS011;54576;52.020;5.536;2022-08-05T08:12:45;2.28;;;0.98;;
67776;SDS011;54576;52.020;5.536;2022-08-05T08:15:11;5.20;;;0.77;;
67776;SDS011;54576;52.020;5.536;2022-08-05T08:17:37;4.68;;;0.90;;
67776;SDS011;54576;52.020;5.536;2022-08-05T08:20:02;4.40;;;1.08;;
67776;SDS011;54576;52.020;5.536;2022-08-05T08:22:30;7.43;;;0.95;;
67776;SDS011;54576;52.020;5.536;2022-08-05T08:24:55;3.65;;;1.17;;
67776;SDS011;54576;52.020;5.536;2022-08-05T08:27:21;2.00;;;0.80;;
67776;SDS011;54576;52.020;5.536;2022-08-05T08:29:47;2.35;;;0.65;;
67776;SDS011;54576;52.020;5.536;2022-08-05T08:32:12;2.10;;;0.50;;
67776;SDS011;54576;52.020;5.536;2022-08-05T08:34:38;5.20;;;0.70;;
67776;SDS011;54576;52.020;5.536;2022-08-05T08:37:03;4.38;;;0.85;;
67776;SDS011;54576;52.020;5.536;2022-08-05T08:39:29;3.95;;;0.70;;
67776;SDS011;54576;52.020;5.536;2022-08-05T08:41:55;1.77;;;0.47;;
67776;SDS011;54576;52.020;5.536;2022-08-05T08:44:22;3.35;;;0.70;;
67776;SDS011;54576;52.020;5.536;2022-08-05T08:46:48;1.63;;;0.55;;
67776;SDS011;54576;52.020;5.536;2022-08-05T08:49:15;2.03;;;0.70;;
67776;SDS011;54576;52.020;5.536;2022-08-05T08:51:46;0.95;;;0.40;;
67776;SDS011;54576;52.020;5.536;2022-08-05T08:54:13;3.70;;;0.63;;
67776;SDS011;54576;52.020;5.536;2022-08-05T08:56:39;0.93;;;0.50;;
67776;SDS011;54576;52.020;5.536;2022-08-05T08:59:05;5.53;;;0.50;;
67776;SDS011;54576;52.020;5.536;2022-08-05T09:01:31;1.52;;;0.50;;
67776;SDS011;54576;52.020;5.536;2022-08-05T09:03:58;3.08;;;0.47;;
67776;SDS011;54576;52.020;5.536;2022-08-05T09:06:24;2.42;;;0.50;;
67776;SDS011;54576;52.020;5.536;2022-08-05T09:08:52;4.70;;;0.60;;
67776;SDS011;54576;52.020;5.536;2022-08-05T09:11:18;17.75;;;0.70;;
67776;SDS011;54576;52.020;5.536;2022-08-05T09:13:44;2.45;;;0.57;;
67776;SDS011;54576;52.020;5.536;2022-08-05T09:16:11;3.78;;;0.70;;
67776;SDS011;54576;52.020;5.536;2022-08-05T09:18:37;1.88;;;0.43;;
67776;SDS011;54576;52.020;5.536;2022-08-05T09:21:03;2.35;;;0.40;;
67776;SDS011;54576;52.020;5.536;2022-08-05T09:23:29;3.03;;;0.43;;
67776;SDS011;54576;52.020;5.536;2022-08-05T09:26:05;1.48;;;0.50;;
67776;SDS011;54576;52.020;5.536;2022-08-05T09:28:34;0.85;;;0.57;;
67776;SDS011;54576;52.020;5.536;2022-08-05T09:33:44;1.17;;;0.50;;
67776;SDS011;54576;52.020;5.536;2022-08-05T09:36:15;4.63;;;0.50;;
67776;SDS011;54576;52.020;5.536;2022-08-05T09:38:54;2.95;;;0.52;;
67776;SDS011;54576;52.020;5.536;2022-08-05T09:41:24;2.85;;;0.55;;
67776;SDS011;54576;52.020;5.536;2022-08-05T09:43:50;1.17;;;0.32;;
67776;SDS011;54576;52.020;5.536;2022-08-05T09:46:26;4.35;;;0.95;;
67776;SDS011;54576;52.020;5.536;2022-08-05T09:48:57;1.45;;;0.43;;
67776;SDS011;54576;52.020;5.536;2022-08-05T09:51:32;4.47;;;0.88;;
67776;SDS011;54576;52.020;5.536;2022-08-05T09:53:59;3.00;;;0.70;;
67776;SDS011;54576;52.020;5.536;2022-08-05T09:56:26;2.97;;;0.57;;
67776;SDS011;54576;52.020;5.536;2022-08-05T09:58:57;4.32;;;0.80;;
67776;SDS011;54576;52.020;5.536;2022-08-05T10:01:24;1.05;;;0.52;;
67776;SDS011;54576;52.020;5.536;2022-08-05T10:03:54;2.33;;;0.60;;
67776;SDS011;54576;52.020;5.536;2022-08-05T10:06:23;5.88;;;0.60;;
67776;SDS011;54576;52.020;5.536;2022-08-05T10:08:50;2.30;;;0.32;;
67776;SDS011;54576;52.020;5.536;2022-08-05T10:11:16;3.38;;;0.70;;
67776;SDS011;54576;52.020;5.536;2022-08-05T10:13:42;1.40;;;0.50;;
67776;SDS011;54576;52.020;5.536;2022-08-05T10:16:28;3.83;;;0.60;;
67776;SDS011;54576;52.020;5.536;2022-08-05T10:18:58;5.32;;;0.50;;
67776;SDS011;54576;52.020;5.536;2022-08-05T10:21:25;2.40;;;0.52;;
67776;SDS011;54576;52.020;5.536;2022-08-05T10:23:51;4.00;;;0.65;;
67776;SDS011;54576;52.020;5.536;2022-08-05T10:26:17;0.88;;;0.50;;
67776;SDS011;54576;52.020;5.536;2022-08-05T10:28:43;2.95;;;0.60;;
67776;SDS011;54576;52.020;5.536;2022-08-05T10:31:10;0.63;;;0.30;;
67776;SDS011;54576;52.020;5.536;2022-08-05T10:33:38;0.88;;;0.30;;
67776;SDS011;54576;52.020;5.536;2022-08-05T10:36:04;1.45;;;0.65;;
67776;SDS011;54576;52.020;5.536;2022-08-05T10:38:30;2.72;;;0.70;;
67776;SDS011;54576;52.020;5.536;2022-08-05T10:46:41;1.27;;;0.40;;
67776;SDS011;54576;52.020;5.536;2022-08-05T10:49:09;1.17;;;0.50;;
67776;SDS011;54576;52.020;5.536;2022-08-05T10:51:42;1.27;;;0.38;;
67776;SDS011;54576;52.020;5.536;2022-08-05T10:54:09;6.10;;;0.63;;
67776;SDS011;54576;52.020;5.536;2022-08-05T10:56:42;1.85;;;0.35;;
67776;SDS011;54576;52.020;5.536;2022-08-05T10:59:15;3.08;;;0.80;;
67776;SDS011;54576;52.020;5.536;2022-08-05T11:02:07;1.65;;;0.43;;
67776;SDS011;54576;52.020;5.536;2022-08-05T11:04:43;4.68;;;0.85;;
67776;SDS011;54576;52.020;5.536;2022-08-05T11:07:10;1.13;;;0.50;;
67776;SDS011;54576;52.020;5.536;2022-08-05T11:15:04;5.38;;;0.60;;
67776;SDS011;54576;52.020;5.536;2022-08-05T11:17:31;8.75;;;1.80;;
67776;SDS011;54576;52.020;5.536;2022-08-05T11:20:04;1.20;;;0.65;;
67776;SDS011;54576;52.020;5.536;2022-08-05T11:22:49;6.53;;;0.40;;
67776;SDS011;54576;52.020;5.536;2022-08-05T11:33:26;2.97;;;0.52;;
67776;SDS011;54576;52.020;5.536;2022-08-05T11:35:58;0.60;;;0.30;;
67776;SDS011;54576;52.020;5.536;2022-08-05T11:41:10;2.45;;;0.77;;
67776;SDS011;54576;52.020;5.536;2022-08-05T11:43:51;1.55;;;0.55;;
67776;SDS011;54576;52.020;5.536;2022-08-05T11:49:10;2.13;;;0.35;;
67776;SDS011;54576;52.020;5.536;2022-08-05T11:51:40;4.72;;;0.50;;
67776;SDS011;54576;52.020;5.536;2022-08-05T11:54:12;6.38;;;0.70;;
67776;SDS011;54576;52.020;5.536;2022-08-05T11:56:46;4.47;;;0.73;;
67776;SDS011;54576;52.020;5.536;2022-08-05T11:59:14;1.73;;;0.50;;
67776;SDS011;54576;52.020;5.536;2022-08-05T12:02:03;0.65;;;0.40;;
67776;SDS011;54576;52.020;5.536;2022-08-05T12:04:43;1.92;;;0.47;;
67776;SDS011;54576;52.020;5.536;2022-08-05T12:07:13;6.75;;;2.25;;
67776;SDS011;54576;52.020;5.536;2022-08-05T12:09:42;3.03;;;0.30;;
67776;SDS011;54576;52.020;5.536;2022-08-05T12:12:21;3.95;;;1.33;;
67776;SDS011;54576;52.020;5.536;2022-08-05T12:14:47;5.82;;;0.50;;
67776;SDS011;54576;52.020;5.536;2022-08-05T12:17:14;3.72;;;0.77;;
67776;SDS011;54576;52.020;5.536;2022-08-05T12:19:44;3.72;;;0.40;;
67776;SDS011;54576;52.020;5.536;2022-08-05T12:22:12;1.83;;;0.45;;
67776;SDS011;54576;52.020;5.536;2022-08-05T12:24:40;4.00;;;0.67;;
67776;SDS011;54576;52.020;5.536;2022-08-05T12:27:07;1.83;;;0.50;;
67776;SDS011;54576;52.020;5.536;2022-08-05T12:32:03;2.40;;;0.50;;
67776;SDS011;54576;52.020;5.536;2022-08-05T12:36:58;2.33;;;0.60;;
67776;SDS011;54576;52.020;5.536;2022-08-05T12:39:25;3.10;;;0.40;;
67776;SDS011;54576;52.020;5.536;2022-08-05T12:41:56;3.13;;;0.50;;
67776;SDS011;54576;52.020;5.536;2022-08-05T12:44:26;1.40;;;0.43;;
67776;SDS011;54576;52.020;5.536;2022-08-05T12:46:52;0.73;;;0.45;;
67776;SDS011;54576;52.020;5.536;2022-08-05T12:49:19;0.77;;;0.50;;
67776;SDS011;54576;52.020;5.536;2022-08-05T12:51:47;0.60;;;0.40;;
67776;SDS011;54576;52.020;5.536;2022-08-05T12:54:30;1.85;;;0.40;;
67776;SDS011;54576;52.020;5.536;2022-08-05T12:56:57;1.60;;;0.40;;
67776;SDS011;54576;52.020;5.536;2022-08-05T12:59:31;1.45;;;0.50;;
67776;SDS011;54576;52.020;5.536;2022-08-05T13:02:06;8.20;;;0.50;;
67776;SDS011;54576;52.020;5.536;2022-08-05T13:04:34;6.22;;;0.52;;
67776;SDS011;54576;52.020;5.536;2022-08-05T13:07:05;3.25;;;0.68;;
67776;SDS011;54576;52.020;5.536;2022-08-05T13:09:42;1.67;;;0.50;;
67776;SDS011;54576;52.020;5.536;2022-08-05T13:12:15;4.70;;;0.47;;
67776;SDS011;54576;52.020;5.536;2022-08-05T13:14:45;7.03;;;0.50;;
67776;SDS011;54576;52.020;5.536;2022-08-05T13:17:22;3.67;;;0.60;;
67776;SDS011;54576;52.020;5.536;2022-08-05T13:22:40;1.88;;;0.70;;
67776;SDS011;54576;52.020;5.536;2022-08-05T13:25:09;1.60;;;0.57;;
67776;SDS011;54576;52.020;5.536;2022-08-05T13:27:40;5.63;;;0.75;;
67776;SDS011;54576;52.020;5.536;2022-08-05T13:30:09;1.35;;;0.40;;
67776;SDS011;54576;52.020;5.536;2022-08-05T13:32:36;3.60;;;0.50;;
67776;SDS011;54576;52.020;5.536;2022-08-05T13:35:02;5.43;;;0.93;;
67776;SDS011;54576;52.020;5.536;2022-08-05T13:37:28;3.05;;;0.57;;
67776;SDS011;54576;52.020;5.536;2022-08-05T13:39:53;0.80;;;0.60;;
67776;SDS011;54576;52.020;5.536;2022-08-05T13:42:19;1.40;;;0.55;;
67776;SDS011;54576;52.020;5.536;2022-08-05T13:44:45;2.50;;;0.45;;
67776;SDS011;54576;52.020;5.536;2022-08-05T13:47:14;7.30;;;0.75;;
67776;SDS011;54576;52.020;5.536;2022-08-05T13:49:40;5.70;;;0.80;;
67776;SDS011;54576;52.020;5.536;2022-08-05T13:52:12;2.67;;;0.63;;
67776;SDS011;54576;52.020;5.536;2022-08-05T13:54:40;7.28;;;0.63;;
67776;SDS011;54576;52.020;5.536;2022-08-05T13:57:06;2.15;;;0.55;;
67776;SDS011;54576;52.020;5.536;2022-08-05T13:59:35;9.70;;;0.70;;
67776;SDS011;54576;52.020;5.536;2022-08-05T14:02:02;2.05;;;0.50;;
67776;SDS011;54576;52.020;5.536;2022-08-05T14:04:30;2.47;;;0.60;;
67776;SDS011;54576;52.020;5.536;2022-08-05T14:07:15;5.32;;;0.60;;
67776;SDS011;54576;52.020;5.536;2022-08-05T14:09:41;2.67;;;0.70;;
67776;SDS011;54576;52.020;5.536;2022-08-05T14:12:06;2.55;;;0.47;;
67776;SDS011;54576;52.020;5.536;2022-08-05T14:14:32;4.03;;;0.60;;
67776;SDS011;54576;52.020;5.536;2022-08-05T14:16:58;3.42;;;0.60;;
67776;SDS011;54576;52.020;5.536;2022-08-05T14:19:23;2.25;;;0.60;;
67776;SDS011;54576;52.020;5.536;2022-08-05T14:21:49;9.02;;;1.23;;
67776;SDS011;54576;52.020;5.536;2022-08-05T14:24:14;5.70;;;0.70;;
67776;SDS011;54576;52.020;5.536;2022-08-05T14:26:40;9.88;;;0.90;;
67776;SDS011;54576;52.020;5.536;2022-08-05T14:29:11;3.03;;;0.85;;
67776;SDS011;54576;52.020;5.536;2022-08-05T14:31:37;1.45;;;0.60;;
67776;SDS011;54576;52.020;5.536;2022-08-05T14:34:03;7.22;;;0.60;;
67776;SDS011;54576;52.020;5.536;2022-08-05T14:36:28;5.97;;;0.88;;
67776;SDS011;54576;52.020;5.536;2022-08-05T14:38:54;5.65;;;0.90;;
67776;SDS011;54576;52.020;5.536;2022-08-05T14:41:20;1.67;;;0.60;;
67776;SDS011;54576;52.020;5.536;2022-08-05T14:43:46;1.85;;;0.77;;
67776;SDS011;54576;52.020;5.536;2022-08-05T14:46:14;1.20;;;0.68;;
67776;SDS011;54576;52.020;5.536;2022-08-05T14:48:40;3.50;;;0.65;;
67776;SDS011;54576;52.020;5.536;2022-08-05T14:51:06;4.78;;;1.20;;
67776;SDS011;54576;52.020;5.536;2022-08-05T14:53:35;5.45;;;1.05;;
67776;SDS011;54576;52.020;5.536;2022-08-05T14:56:01;2.00;;;0.60;;
67776;SDS011;54576;52.020;5.536;2022-08-05T14:58:27;1.52;;;0.40;;
67776;SDS011;54576;52.020;5.536;2022-08-05T15:00:52;4.95;;;0.70;;
67776;SDS011;54576;52.020;5.536;2022-08-05T15:03:18;2.03;;;0.60;;
67776;SDS011;54576;52.020;5.536;2022-08-05T15:05:44;2.88;;;0.40;;
67776;SDS011;54576;52.020;5.536;2022-08-05T15:08:09;3.78;;;0.98;;
67776;SDS011;54576;52.020;5.536;2022-08-05T15:10:35;1.30;;;0.40;;
67776;SDS011;54576;52.020;5.536;2022-08-05T15:13:01;1.70;;;0.75;;
67776;SDS011;54576;52.020;5.536;2022-08-05T15:15:28;0.25;;;0.25;;
67776;SDS011;54576;52.020;5.536;2022-08-05T15:17:54;1.92;;;0.65;;
67776;SDS011;54576;52.020;5.536;2022-08-05T15:20:19;4.32;;;0.45;;
67776;SDS011;54576;52.020;5.536;2022-08-05T15:22:49;1.85;;;0.50;;
67776;SDS011;54576;52.020;5.536;2022-08-05T15:25:15;9.23;;;0.50;;
67776;SDS011;54576;52.020;5.536;2022-08-05T15:27:41;5.45;;;0.47;;